createdAt,value
2023-03-10T00:00:33.641Z,5.68
2023-03-10T00:01:33.641Z,5.67
2023-03-10T00:02:33.645Z,5.58
2023-03-10T00:03:33.631Z,5.60
2023-03-10T00:04:33.734Z,5.65
2023-03-10T00:05:33.649Z,5.71
2023-03-10T00:06:33.585Z,5.65
2023-03-10T00:07:33.588Z,5.72
2023-03-10T00:08:33.559Z,5.68
2023-03-10T00:09:33.657Z,5.71
2023-03-10T00:10:33.529Z,5.64
2023-03-10T00:11:33.523Z,5.63
2023-03-10T00:12:33.504Z,5.64
2023-03-10T00:13:33.522Z,5.63
2023-03-10T00:14:33.493Z,5.54
2023-03-10T00:15:33.526Z,5.54
2023-03-10T00:16:33.457Z,5.46
2023-03-10T00:17:33.469Z,5.57
2023-03-10T00:18:33.461Z,5.51
2023-03-10T00:19:33.427Z,5.51
2023-03-10T00:20:33.426Z,5.46
2023-03-10T00:21:33.404Z,5.48
2023-03-10T00:22:33.387Z,5.43
2023-03-10T00:23:35.690Z,5.42
2023-03-10T00:24:33.364Z,5.42
2023-03-10T00:25:33.381Z,5.40
2023-03-10T00:26:33.364Z,5.49
2023-03-10T00:27:33.337Z,5.42
2023-03-10T00:28:33.335Z,5.43
2023-03-10T00:29:33.340Z,5.42
2023-03-10T00:30:33.295Z,5.49
2023-03-10T00:31:33.322Z,5.42
2023-03-10T00:32:33.344Z,5.58
2023-03-10T00:33:33.295Z,5.54
2023-03-10T00:34:33.252Z,5.58
2023-03-10T00:35:33.265Z,5.63
2023-03-10T00:36:33.237Z,5.57
2023-03-10T00:37:33.229Z,5.58
2023-03-10T00:38:33.238Z,5.57
2023-03-10T00:39:33.200Z,5.72
2023-03-10T00:40:33.183Z,5.68
2023-03-10T00:41:33.199Z,5.79
2023-03-10T00:42:33.190Z,5.78
2023-03-10T00:43:33.175Z,5.82
2023-03-10T00:44:33.149Z,5.82
2023-03-10T00:45:33.132Z,5.81
2023-03-10T00:46:33.401Z,5.85
2023-03-10T00:47:33.137Z,5.86
2023-03-10T00:48:33.095Z,5.89
2023-03-10T00:49:33.103Z,5.99
2023-03-10T00:50:33.082Z,5.85
2023-03-10T00:51:33.064Z,5.78
2023-03-10T00:52:33.055Z,5.91
2023-03-10T00:53:33.065Z,5.99
2023-03-10T00:54:33.024Z,5.97
2023-03-10T00:55:33.019Z,5.94
2023-03-10T00:56:33.022Z,5.93
2023-03-10T00:57:33.016Z,5.94
2023-03-10T00:58:33.002Z,5.97
2023-03-10T00:59:47.849Z,5.91
2023-03-10T01:00:33.954Z,5.96
2023-03-10T01:01:33.052Z,5.94
2023-03-10T01:02:32.944Z,5.93
2023-03-10T01:03:32.931Z,5.89
2023-03-10T01:04:33.001Z,5.86
2023-03-10T01:05:32.925Z,5.96
2023-03-10T01:06:32.894Z,6.00
2023-03-10T01:07:32.888Z,5.96
2023-03-10T01:08:32.874Z,5.94
2023-03-10T01:09:32.875Z,5.99
2023-03-10T01:10:32.839Z,5.91
2023-03-10T01:11:32.837Z,5.83
2023-03-10T01:12:32.821Z,5.89
2023-03-10T01:13:32.826Z,5.86
2023-03-10T01:14:32.828Z,5.89
2023-03-10T01:15:32.793Z,5.97
2023-03-10T01:16:32.882Z,5.93
2023-03-10T01:17:32.760Z,5.93
2023-03-10T01:18:32.752Z,5.93
2023-03-10T01:19:32.825Z,5.90
2023-03-10T01:20:32.741Z,5.91
2023-03-10T01:21:32.712Z,5.93
2023-03-10T01:22:32.707Z,5.91
2023-03-10T01:23:32.697Z,5.85
2023-03-10T01:24:32.704Z,5.83
2023-03-10T01:25:32.665Z,5.81
2023-03-10T01:26:32.673Z,5.82
2023-03-10T01:27:32.652Z,5.82
2023-03-10T01:28:32.649Z,5.76
2023-03-10T01:29:32.787Z,5.74
2023-03-10T01:30:32.614Z,5.89
2023-03-10T01:31:32.663Z,5.85
2023-03-10T01:32:32.666Z,5.90
2023-03-10T01:33:32.571Z,5.79
2023-03-10T01:34:32.596Z,5.75
2023-03-10T01:35:32.618Z,5.83
2023-03-10T01:36:32.567Z,5.79
2023-03-10T01:37:32.553Z,5.78
2023-03-10T01:38:32.530Z,5.81
2023-03-10T01:39:32.505Z,5.79
2023-03-10T01:40:32.494Z,5.75
2023-03-10T01:41:32.480Z,5.93
2023-03-10T01:42:32.499Z,5.89
2023-03-10T01:43:32.455Z,5.93
2023-03-10T01:44:32.476Z,5.93
2023-03-10T01:45:32.449Z,6.00
2023-03-10T01:46:32.496Z,5.94
2023-03-10T01:47:32.418Z,5.94
2023-03-10T01:48:32.406Z,6.03
2023-03-10T01:49:32.402Z,6.11
2023-03-10T01:50:32.409Z,6.18
2023-03-10T01:51:32.363Z,6.31
2023-03-10T01:52:32.368Z,6.31
2023-03-10T01:53:32.359Z,6.40
2023-03-10T01:54:32.334Z,6.41
2023-03-10T01:55:32.339Z,6.51
2023-03-10T01:56:32.316Z,6.51
2023-03-10T01:57:32.317Z,6.51
2023-03-10T01:58:32.289Z,6.49
2023-03-10T01:59:32.290Z,6.55
2023-03-10T02:00:32.328Z,6.55
2023-03-10T02:01:32.270Z,6.59
2023-03-10T02:02:32.259Z,6.59
2023-03-10T02:03:32.230Z,6.59
2023-03-10T02:04:32.220Z,6.54
2023-03-10T02:05:32.223Z,6.58
2023-03-10T02:06:32.199Z,6.66
2023-03-10T02:07:32.182Z,6.59
2023-03-10T02:08:32.188Z,6.59
2023-03-10T02:09:32.154Z,6.66
2023-03-10T02:10:32.175Z,6.66
2023-03-10T02:11:32.132Z,6.69
2023-03-10T02:12:32.148Z,6.66
2023-03-10T02:13:32.145Z,6.64
2023-03-10T02:14:32.114Z,6.69
2023-03-10T02:15:32.091Z,6.61
2023-03-10T02:16:32.120Z,6.66
2023-03-10T02:17:32.176Z,6.62
2023-03-10T02:18:32.066Z,6.58
2023-03-10T02:19:32.065Z,6.67
2023-03-10T02:20:32.052Z,6.54
2023-03-10T02:21:32.038Z,6.49
2023-03-10T02:22:32.035Z,6.55
2023-03-10T02:23:31.999Z,6.44
2023-03-10T02:24:31.998Z,6.49
2023-03-10T02:25:31.992Z,6.46
2023-03-10T02:26:31.984Z,6.49
2023-03-10T02:27:31.973Z,6.49
2023-03-10T02:28:31.948Z,6.52
2023-03-10T02:29:31.931Z,6.59
2023-03-10T02:30:31.921Z,6.66
2023-03-10T02:31:31.929Z,6.62
2023-03-10T02:32:32.081Z,6.77
2023-03-10T02:33:31.967Z,6.73
2023-03-10T02:34:31.877Z,6.73
2023-03-10T02:35:31.886Z,6.76
2023-03-10T02:36:31.958Z,6.71
2023-03-10T02:37:31.866Z,6.80
2023-03-10T02:38:31.841Z,6.70
2023-03-10T02:39:31.840Z,6.70
2023-03-10T02:40:31.806Z,6.73
2023-03-10T02:41:31.823Z,6.79
2023-03-10T02:42:31.821Z,6.79
2023-03-10T02:43:31.780Z,6.71
2023-03-10T02:44:31.786Z,6.85
2023-03-10T02:45:31.812Z,6.76
2023-03-10T02:46:31.870Z,6.67
2023-03-10T02:47:31.757Z,6.76
2023-03-10T02:48:31.715Z,6.70
2023-03-10T02:49:31.720Z,6.69
2023-03-10T02:50:31.692Z,6.77
2023-03-10T02:51:31.703Z,6.70
2023-03-10T02:52:31.681Z,6.71
2023-03-10T02:53:31.648Z,6.84
2023-03-10T02:54:31.643Z,6.73
2023-03-10T02:55:31.628Z,6.79
2023-03-10T02:56:31.637Z,6.80
2023-03-10T02:57:31.616Z,6.76
2023-03-10T02:58:31.593Z,6.74
2023-03-10T02:59:31.612Z,6.81
2023-03-10T03:00:31.577Z,6.70
2023-03-10T03:01:31.584Z,6.71
2023-03-10T03:02:31.551Z,6.79
2023-03-10T03:03:31.570Z,6.80
2023-03-10T03:04:31.544Z,6.69
2023-03-10T03:05:31.597Z,6.73
2023-03-10T03:06:31.505Z,6.85
2023-03-10T03:07:31.487Z,6.73
2023-03-10T03:08:31.481Z,6.80
2023-03-10T03:09:31.494Z,6.84
2023-03-10T03:10:31.458Z,6.81
2023-03-10T03:11:31.439Z,6.88
2023-03-10T03:12:31.480Z,6.87
2023-03-10T03:13:31.421Z,6.87
2023-03-10T03:14:31.451Z,6.94
2023-03-10T03:15:31.407Z,6.98
2023-03-10T03:16:31.463Z,6.95
2023-03-10T03:17:31.375Z,6.92
2023-03-10T03:18:31.369Z,6.97
2023-03-10T03:19:31.373Z,6.94
2023-03-10T03:20:31.348Z,6.99
2023-03-10T03:21:31.341Z,6.97
2023-03-10T03:22:31.320Z,6.98
2023-03-10T03:23:31.333Z,6.97
2023-03-10T03:24:31.310Z,6.95
2023-03-10T03:25:31.280Z,6.98
2023-03-10T03:26:31.303Z,7.02
2023-03-10T03:27:31.274Z,7.03
2023-03-10T03:28:31.250Z,7.03
2023-03-10T03:29:31.238Z,6.98
2023-03-10T03:30:31.228Z,6.98
2023-03-10T03:31:31.345Z,6.99
2023-03-10T03:32:31.319Z,6.95
2023-03-10T03:33:31.226Z,6.98
2023-03-10T03:34:31.185Z,6.97
2023-03-10T03:35:31.215Z,6.97
2023-03-10T03:36:31.166Z,6.91
2023-03-10T03:37:31.161Z,6.91
2023-03-10T03:38:31.156Z,6.88
2023-03-10T03:39:31.209Z,6.89
2023-03-10T03:40:31.113Z,6.89
2023-03-10T03:41:31.097Z,6.94
2023-03-10T03:42:31.091Z,6.91
2023-03-10T03:43:31.099Z,6.81
2023-03-10T03:44:31.068Z,6.84
2023-03-10T03:45:31.089Z,6.77
2023-03-10T03:46:31.089Z,6.85
2023-03-10T03:47:31.025Z,6.80
2023-03-10T03:48:31.027Z,6.79
2023-03-10T03:49:31.022Z,6.73
2023-03-10T03:50:31.011Z,6.71
2023-03-10T03:51:31.018Z,6.74
2023-03-10T03:52:30.984Z,6.76
2023-03-10T03:53:30.991Z,6.77
2023-03-10T03:54:30.989Z,6.64
2023-03-10T03:55:30.960Z,6.71
2023-03-10T03:56:30.947Z,6.73
2023-03-10T03:57:30.927Z,6.71
2023-03-10T03:58:30.909Z,6.69
2023-03-10T03:59:30.890Z,6.59
2023-03-10T04:00:30.907Z,6.67
2023-03-10T04:01:30.871Z,6.66
2023-03-10T04:02:30.978Z,6.59
2023-03-10T04:03:30.910Z,6.61
2023-03-10T04:04:30.860Z,6.69
2023-03-10T04:05:30.828Z,6.67
2023-03-10T04:06:30.820Z,6.66
2023-03-10T04:07:30.800Z,6.69
2023-03-10T04:08:30.801Z,6.59
2023-03-10T04:09:30.866Z,6.56
2023-03-10T04:10:30.778Z,6.61
2023-03-10T04:11:30.756Z,6.59
2023-03-10T04:12:30.765Z,6.67
2023-03-10T04:13:30.758Z,6.59
2023-03-10T04:14:30.848Z,6.59
2023-03-10T04:15:30.779Z,6.55
2023-03-10T04:16:30.702Z,6.58
2023-03-10T04:17:30.700Z,6.56
2023-03-10T04:18:30.680Z,6.64
2023-03-10T04:19:30.686Z,6.70
2023-03-10T04:20:30.676Z,6.62
2023-03-10T04:21:30.639Z,6.62
2023-03-10T04:22:30.647Z,6.74
2023-03-10T04:23:30.633Z,6.73
2023-03-10T04:24:30.656Z,6.84
2023-03-10T04:25:30.622Z,6.79
2023-03-10T04:26:30.605Z,6.74
2023-03-10T04:27:30.572Z,6.74
2023-03-10T04:28:30.564Z,6.73
2023-03-10T04:29:30.572Z,6.67
2023-03-10T04:30:30.543Z,6.76
2023-03-10T04:31:30.597Z,6.70
2023-03-10T04:32:30.566Z,6.76
2023-03-10T04:33:30.508Z,6.76
2023-03-10T04:34:30.517Z,6.73
2023-03-10T04:35:30.482Z,6.71
2023-03-10T04:36:30.477Z,6.71
2023-03-10T04:37:30.460Z,6.84
2023-03-10T04:38:30.461Z,6.73
2023-03-10T04:39:30.454Z,6.80
2023-03-10T04:40:30.437Z,6.84
2023-03-10T04:41:30.445Z,6.79
2023-03-10T04:42:30.427Z,6.80
2023-03-10T04:43:30.408Z,6.80
2023-03-10T04:44:31.625Z,6.79
2023-03-10T04:45:30.367Z,6.81
2023-03-10T04:46:30.452Z,6.80
2023-03-10T04:47:30.344Z,6.89
2023-03-10T04:48:30.357Z,6.76
2023-03-10T04:49:30.323Z,6.77
2023-03-10T04:50:30.334Z,6.91
2023-03-10T04:51:30.304Z,6.88
2023-03-10T04:52:30.294Z,6.91
2023-03-10T04:53:30.294Z,6.77
2023-03-10T04:54:30.271Z,6.79
2023-03-10T04:55:30.251Z,6.79
2023-03-10T04:56:30.258Z,6.79
2023-03-10T04:57:30.247Z,6.77
2023-03-10T04:58:30.241Z,6.84
2023-03-10T04:59:30.199Z,6.79
2023-03-10T05:00:30.274Z,6.88
2023-03-10T05:01:30.221Z,6.85
2023-03-10T05:02:30.185Z,6.81
2023-03-10T05:03:30.173Z,6.79
2023-03-10T05:04:30.242Z,6.77
2023-03-10T05:05:30.133Z,6.79
2023-03-10T05:06:30.177Z,6.70
2023-03-10T05:07:30.103Z,6.73
2023-03-10T05:08:30.127Z,6.73
2023-03-10T05:09:30.111Z,6.70
2023-03-10T05:10:30.089Z,6.74
2023-03-10T05:11:30.090Z,6.71
2023-03-10T05:12:30.057Z,6.85
2023-03-10T05:13:31.826Z,6.76
2023-03-10T05:14:30.043Z,6.76
2023-03-10T05:15:30.018Z,6.81
2023-03-10T05:16:30.111Z,6.77
2023-03-10T05:17:30.035Z,6.73
2023-03-10T05:18:29.986Z,6.74
2023-03-10T05:19:30.009Z,6.71
2023-03-10T05:20:29.993Z,6.73
2023-03-10T05:21:29.977Z,6.71
2023-03-10T05:22:29.936Z,6.76
2023-03-10T05:23:29.917Z,6.70
2023-03-10T05:24:29.915Z,6.74
2023-03-10T05:25:29.895Z,6.80
2023-03-10T05:26:29.924Z,6.79
2023-03-10T05:27:29.879Z,6.76
2023-03-10T05:28:29.858Z,6.79
2023-03-10T05:29:29.876Z,6.77
2023-03-10T05:30:29.858Z,6.81
2023-03-10T05:31:30.143Z,6.84
2023-03-10T05:32:29.860Z,6.84
2023-03-10T05:33:31.513Z,6.91
2023-03-10T05:34:29.791Z,6.89
2023-03-10T05:35:29.812Z,6.81
2023-03-10T05:36:29.771Z,6.89
2023-03-10T05:37:29.770Z,6.94
2023-03-10T05:38:29.759Z,6.94
2023-03-10T05:39:29.757Z,6.95
2023-03-10T05:40:29.728Z,6.95
2023-03-10T05:41:29.742Z,7.02
2023-03-10T05:42:29.703Z,7.03
2023-03-10T05:43:29.752Z,6.94
2023-03-10T05:44:29.765Z,7.10
2023-03-10T05:45:29.686Z,6.94
2023-03-10T05:46:29.838Z,7.06
2023-03-10T05:47:29.803Z,6.98
2023-03-10T05:48:29.638Z,7.05
2023-03-10T05:49:29.646Z,7.09
2023-03-10T05:50:29.654Z,7.09
2023-03-10T05:51:29.626Z,6.99
2023-03-10T05:52:29.594Z,7.10
2023-03-10T05:53:29.612Z,7.06
2023-03-10T05:54:29.572Z,7.10
2023-03-10T05:55:29.580Z,7.15
2023-03-10T05:56:29.571Z,7.07
2023-03-10T05:57:29.555Z,7.10
2023-03-10T05:58:29.528Z,7.12
2023-03-10T05:59:29.514Z,7.06
2023-03-10T06:00:29.526Z,7.06
2023-03-10T06:01:29.524Z,7.10
2023-03-10T06:02:29.507Z,7.09
2023-03-10T06:03:29.610Z,7.10
2023-03-10T06:04:29.571Z,7.09
2023-03-10T06:05:29.485Z,7.07
2023-03-10T06:06:29.430Z,7.09
2023-03-10T06:07:29.469Z,7.17
2023-03-10T06:08:29.419Z,7.13
2023-03-10T06:09:29.400Z,7.12
2023-03-10T06:10:29.414Z,7.15
2023-03-10T06:11:29.401Z,7.12
2023-03-10T06:12:29.368Z,7.09
2023-03-10T06:13:29.356Z,6.98
2023-03-10T06:14:29.344Z,7.06
2023-03-10T06:15:29.333Z,7.05
2023-03-10T06:16:29.397Z,7.15
2023-03-10T06:17:29.346Z,7.05
2023-03-10T06:18:29.331Z,7.13
2023-03-10T06:19:29.325Z,7.13
2023-03-10T06:20:29.301Z,7.12
2023-03-10T06:21:29.321Z,7.16
2023-03-10T06:22:31.252Z,7.15
2023-03-10T06:23:29.240Z,7.13
2023-03-10T06:24:29.223Z,7.13
2023-03-10T06:25:29.215Z,7.13
2023-03-10T06:26:29.232Z,7.15
2023-03-10T06:27:29.193Z,7.13
2023-03-10T06:28:29.175Z,7.12
2023-03-10T06:29:29.178Z,7.13
2023-03-10T06:30:29.157Z,7.13
2023-03-10T06:31:29.333Z,7.07
2023-03-10T06:32:29.186Z,7.07
2023-03-10T06:33:29.143Z,7.05
2023-03-10T06:34:29.113Z,7.05
2023-03-10T06:35:29.105Z,7.10
2023-03-10T06:36:29.107Z,7.07
2023-03-10T06:37:29.125Z,7.06
2023-03-10T06:38:29.093Z,7.15
2023-03-10T06:39:29.126Z,7.15
2023-03-10T06:40:29.051Z,7.23
2023-03-10T06:41:29.048Z,7.20
2023-03-10T06:42:29.083Z,7.31
2023-03-10T06:43:29.013Z,7.24
2023-03-10T06:44:29.015Z,7.13
2023-03-10T06:45:28.991Z,7.12
2023-03-10T06:46:28.998Z,7.12
2023-03-10T06:47:28.966Z,7.16
2023-03-10T06:48:28.975Z,7.12
2023-03-10T06:49:28.958Z,7.13
2023-03-10T06:50:31.509Z,7.16
2023-03-10T06:51:28.922Z,7.15
2023-03-10T06:52:28.922Z,7.13
2023-03-10T06:53:28.898Z,7.10
2023-03-10T06:54:28.889Z,7.10
2023-03-10T06:55:28.880Z,7.07
2023-03-10T06:56:28.895Z,7.13
2023-03-10T06:57:28.860Z,7.07
2023-03-10T06:58:28.837Z,7.12
2023-03-10T06:59:28.829Z,7.06
2023-03-10T07:00:28.836Z,7.10
2023-03-10T07:01:29.112Z,7.06
2023-03-10T07:02:28.817Z,7.09
2023-03-10T07:03:28.805Z,7.10
2023-03-10T07:04:28.815Z,7.09
2023-03-10T07:05:28.867Z,7.10
2023-03-10T07:06:28.744Z,7.09
2023-03-10T07:07:28.743Z,7.13
2023-03-10T07:08:28.747Z,7.13
2023-03-10T07:09:28.747Z,7.16
2023-03-10T07:10:28.691Z,7.21
2023-03-10T07:11:28.686Z,7.32
2023-03-10T07:12:28.671Z,7.32
2023-03-10T07:13:28.725Z,7.37
2023-03-10T07:14:28.686Z,7.42
2023-03-10T07:15:28.640Z,7.46
2023-03-10T07:16:28.636Z,7.55
2023-03-10T07:17:28.614Z,7.53
2023-03-10T07:18:28.624Z,7.52
2023-03-10T07:19:28.596Z,7.58
2023-03-10T07:20:28.587Z,7.50
2023-03-10T07:21:28.613Z,7.55
2023-03-10T07:22:28.571Z,7.55
2023-03-10T07:23:28.551Z,7.55
2023-03-10T07:24:28.557Z,7.50
2023-03-10T07:25:28.517Z,7.49
2023-03-10T07:26:28.537Z,7.55
2023-03-10T07:27:28.497Z,7.61
2023-03-10T07:28:28.477Z,7.53
2023-03-10T07:29:28.475Z,7.68
2023-03-10T07:30:28.507Z,7.71
2023-03-10T07:31:28.538Z,7.79
2023-03-10T07:32:28.571Z,7.83
2023-03-10T07:33:28.434Z,7.80
2023-03-10T07:34:28.422Z,7.89
2023-03-10T07:35:28.404Z,8.00
2023-03-10T07:36:28.388Z,8.08
2023-03-10T07:37:28.404Z,8.12
2023-03-10T07:38:28.407Z,8.12
2023-03-10T07:39:28.363Z,8.18
2023-03-10T07:40:28.400Z,8.25
2023-03-10T07:41:28.351Z,8.41
2023-03-10T07:42:28.334Z,8.40
2023-03-10T07:43:28.312Z,8.47
2023-03-10T07:44:28.341Z,8.44
2023-03-10T07:45:28.330Z,8.41
2023-03-10T07:46:28.396Z,8.44
2023-03-10T07:47:28.283Z,8.30
2023-03-10T07:48:28.254Z,8.43
2023-03-10T07:49:28.278Z,8.43
2023-03-10T07:50:28.300Z,8.41
2023-03-10T07:51:28.253Z,8.36
2023-03-10T07:52:28.208Z,8.45
2023-03-10T07:53:28.232Z,8.30
2023-03-10T07:54:28.182Z,8.44
2023-03-10T07:55:28.213Z,8.37
2023-03-10T07:56:28.177Z,8.50
2023-03-10T07:57:28.159Z,8.44
2023-03-10T07:58:28.138Z,8.40
2023-03-10T07:59:28.151Z,8.55
2023-03-10T08:00:28.198Z,8.52
2023-03-10T08:01:28.124Z,8.44
2023-03-10T08:02:28.112Z,8.55
2023-03-10T08:03:28.155Z,8.53
2023-03-10T08:04:28.227Z,8.48
2023-03-10T08:05:28.206Z,8.50
2023-03-10T08:06:28.069Z,8.59
2023-03-10T08:07:28.068Z,8.61
2023-03-10T08:08:28.035Z,8.65
2023-03-10T08:09:28.043Z,8.62
2023-03-10T08:10:28.048Z,8.66
2023-03-10T08:11:28.002Z,8.63
2023-03-10T08:12:27.983Z,8.66
2023-03-10T08:13:28.040Z,8.66
2023-03-10T08:14:27.986Z,8.70
2023-03-10T08:15:27.972Z,8.63
2023-03-10T08:16:27.985Z,8.68
2023-03-10T08:17:27.933Z,8.63
2023-03-10T08:18:27.912Z,8.62
2023-03-10T08:19:27.955Z,8.62
2023-03-10T08:20:27.896Z,8.53
2023-03-10T08:21:27.894Z,8.53
2023-03-10T08:22:27.865Z,8.52
2023-03-10T08:23:27.875Z,8.50
2023-03-10T08:24:27.845Z,8.47
2023-03-10T08:25:27.859Z,8.43
2023-03-10T08:26:27.852Z,8.44
2023-03-10T08:27:29.125Z,8.44
2023-03-10T08:28:27.817Z,8.40
2023-03-10T08:29:27.793Z,8.44
2023-03-10T08:30:27.769Z,8.48
2023-03-10T08:31:27.854Z,8.52
2023-03-10T08:32:27.805Z,8.55
2023-03-10T08:33:27.767Z,8.50
2023-03-10T08:34:27.725Z,8.44
2023-03-10T08:35:27.719Z,8.55
2023-03-10T08:36:27.705Z,8.47
2023-03-10T08:37:27.724Z,8.47
2023-03-10T08:38:27.714Z,8.53
2023-03-10T08:39:27.824Z,8.56
2023-03-10T08:40:27.665Z,8.56
2023-03-10T08:41:27.700Z,8.55
2023-03-10T08:42:27.641Z,8.59
2023-03-10T08:43:27.665Z,8.62
2023-03-10T08:44:27.628Z,8.63
2023-03-10T08:45:27.623Z,8.63
2023-03-10T08:46:27.633Z,8.73
2023-03-10T08:47:30.467Z,8.71
2023-03-10T08:48:27.566Z,8.83
2023-03-10T08:49:27.596Z,8.91
2023-03-10T08:50:27.556Z,9.02
2023-03-10T08:51:27.540Z,9.05
2023-03-10T08:52:27.528Z,9.01
2023-03-10T08:53:27.539Z,8.99
2023-03-10T08:54:27.521Z,9.08
2023-03-10T08:55:27.501Z,9.05
2023-03-10T08:56:27.517Z,9.02
2023-03-10T08:57:27.538Z,9.04
2023-03-10T08:58:27.464Z,9.05
2023-03-10T08:59:27.471Z,9.10
2023-03-10T09:00:27.444Z,9.04
2023-03-10T09:01:27.439Z,9.02
2023-03-10T09:02:27.495Z,9.14
2023-03-10T09:03:29.596Z,9.15
2023-03-10T09:04:27.405Z,9.15
2023-03-10T09:05:27.426Z,9.20
2023-03-10T09:06:27.369Z,9.17
2023-03-10T09:07:27.429Z,9.13
2023-03-10T09:08:28.002Z,9.11
2023-03-10T09:09:27.340Z,9.23
2023-03-10T09:10:27.358Z,9.31
2023-03-10T09:11:27.358Z,9.36
2023-03-10T09:12:33.192Z,9.32
2023-03-10T09:13:29.383Z,9.39
2023-03-10T09:14:27.291Z,9.32
2023-03-10T09:15:27.276Z,9.38
2023-03-10T09:16:27.304Z,9.31
2023-03-10T09:17:27.242Z,9.32
2023-03-10T09:18:27.261Z,9.31
2023-03-10T09:19:27.219Z,9.29
2023-03-10T09:20:29.332Z,9.28
2023-03-10T09:21:27.219Z,9.31
2023-03-10T09:22:27.209Z,9.31
2023-03-10T09:23:27.193Z,9.20
2023-03-10T09:24:27.161Z,9.20
2023-03-10T09:25:27.149Z,9.13
2023-03-10T09:26:27.147Z,9.14
2023-03-10T09:27:27.173Z,9.21
2023-03-10T09:28:27.109Z,9.24
2023-03-10T09:29:42.052Z,9.14
2023-03-10T09:30:28.086Z,9.23
2023-03-10T09:31:27.182Z,9.24
2023-03-10T09:32:27.129Z,9.24
2023-03-10T09:33:27.068Z,9.20
2023-03-10T09:34:27.045Z,9.24
2023-03-10T09:35:27.105Z,9.21
2023-03-10T09:36:27.101Z,9.17
2023-03-10T09:37:27.029Z,9.20
2023-03-10T09:38:27.031Z,9.33
2023-03-10T09:39:26.991Z,9.29
2023-03-10T09:40:26.992Z,9.36
2023-03-10T09:41:26.974Z,9.35
2023-03-10T09:42:37.436Z,9.48
2023-03-10T09:43:27.965Z,9.58
2023-03-10T09:44:26.949Z,9.61
2023-03-10T09:45:26.951Z,9.74
2023-03-10T09:46:26.921Z,9.74
2023-03-10T09:47:26.899Z,9.72
2023-03-10T09:48:26.914Z,9.74
2023-03-10T09:49:26.925Z,9.65
2023-03-10T09:50:26.880Z,9.60
2023-03-10T09:51:26.851Z,9.64
2023-03-10T09:52:26.875Z,9.64
2023-03-10T09:53:26.850Z,9.60
2023-03-10T09:54:26.863Z,9.61
2023-03-10T09:55:26.802Z,9.57
2023-03-10T09:56:28.943Z,9.60
2023-03-10T09:57:26.807Z,9.50
2023-03-10T09:58:26.775Z,9.60
2023-03-10T09:59:26.792Z,9.53
2023-03-10T10:00:27.498Z,9.50
2023-03-10T10:01:26.773Z,9.58
2023-03-10T10:02:26.725Z,9.58
2023-03-10T10:03:26.738Z,9.60
2023-03-10T10:04:26.797Z,9.60
2023-03-10T10:05:26.729Z,9.60
2023-03-10T10:06:28.493Z,9.58
2023-03-10T10:07:26.710Z,9.69
2023-03-10T10:08:28.686Z,9.74
2023-03-10T10:09:26.642Z,9.76
2023-03-10T10:10:26.650Z,9.74
2023-03-10T10:11:29.604Z,9.87
2023-03-10T10:12:26.633Z,9.93
2023-03-10T10:13:26.612Z,10.01
2023-03-10T10:14:30.004Z,10.08
2023-03-10T10:15:26.571Z,10.11
2023-03-10T10:16:34.225Z,10.17
2023-03-10T10:17:27.632Z,10.22
2023-03-10T10:18:26.728Z,10.22
2023-03-10T10:19:26.535Z,10.36
2023-03-10T10:20:26.520Z,10.40
2023-03-10T10:21:33.615Z,10.42
2023-03-10T10:22:27.530Z,10.42
2023-03-10T10:23:26.482Z,10.40
2023-03-10T10:24:26.493Z,10.38
2023-03-10T10:25:26.464Z,10.32
2023-03-10T10:26:26.505Z,10.26
2023-03-10T10:27:26.566Z,10.22
2023-03-10T10:28:27.258Z,10.14
2023-03-10T10:29:26.436Z,10.17
2023-03-10T10:30:27.282Z,10.12
2023-03-10T10:31:26.468Z,10.15
2023-03-10T10:32:26.428Z,10.15
2023-03-10T10:33:26.377Z,10.09
2023-03-10T10:34:26.365Z,10.20
2023-03-10T10:35:26.393Z,10.22
2023-03-10T10:36:26.363Z,10.22
2023-03-10T10:37:26.315Z,10.32
2023-03-10T10:38:26.317Z,10.40
2023-03-10T10:39:28.149Z,10.34
2023-03-10T10:40:26.310Z,10.42
2023-03-10T10:41:26.295Z,10.34
2023-03-10T10:42:26.270Z,10.40
2023-03-10T10:43:26.251Z,10.40
2023-03-10T10:44:26.241Z,10.45
2023-03-10T10:45:26.244Z,10.36
2023-03-10T10:46:26.264Z,10.33
2023-03-10T10:47:26.429Z,10.29
2023-03-10T10:48:26.198Z,10.27
2023-03-10T10:49:26.220Z,10.32
2023-03-10T10:50:26.178Z,10.30
2023-03-10T10:51:26.205Z,10.33
2023-03-10T10:52:34.988Z,10.26
2023-03-10T10:53:26.173Z,10.25
2023-03-10T10:54:26.137Z,10.17
2023-03-10T10:55:26.114Z,10.23
2023-03-10T10:56:26.141Z,10.25
2023-03-10T10:57:26.090Z,10.29
2023-03-10T10:58:26.086Z,10.29
2023-03-10T10:59:26.066Z,10.34
2023-03-10T11:00:26.077Z,10.38
2023-03-10T11:01:26.099Z,10.36
2023-03-10T11:02:26.111Z,10.33
2023-03-10T11:03:26.022Z,10.34
2023-03-10T11:04:26.015Z,10.34
2023-03-10T11:05:26.025Z,10.32
2023-03-10T11:06:26.013Z,10.29
2023-03-10T11:07:25.985Z,10.26
2023-03-10T11:08:25.971Z,10.27
2023-03-10T11:09:25.956Z,10.34
2023-03-10T11:10:25.972Z,10.30
2023-03-10T11:11:25.935Z,10.38
2023-03-10T11:12:25.982Z,10.42
2023-03-10T11:13:25.912Z,10.60
2023-03-10T11:14:25.906Z,10.64
2023-03-10T11:15:25.951Z,10.74
2023-03-10T11:16:25.878Z,10.88
2023-03-10T11:17:25.859Z,10.89
2023-03-10T11:18:25.855Z,11.09
2023-03-10T11:19:25.873Z,11.15
2023-03-10T11:20:25.833Z,11.19
2023-03-10T11:21:25.836Z,11.28
2023-03-10T11:22:25.805Z,11.35
2023-03-10T11:23:25.867Z,11.27
2023-03-10T11:24:26.040Z,11.28
2023-03-10T11:25:25.778Z,11.11
2023-03-10T11:26:25.759Z,11.27
2023-03-10T11:27:25.745Z,11.32
2023-03-10T11:28:25.764Z,11.40
2023-03-10T11:29:25.813Z,11.60
2023-03-10T11:30:26.071Z,11.78
2023-03-10T11:31:25.764Z,11.90
2023-03-10T11:32:25.790Z,12.13
2023-03-10T11:33:25.675Z,12.16
2023-03-10T11:34:25.806Z,12.17
2023-03-10T11:35:25.654Z,12.28
2023-03-10T11:36:25.642Z,12.38
2023-03-10T11:37:25.676Z,12.31
2023-03-10T11:38:25.622Z,12.27
2023-03-10T11:39:25.603Z,12.27
2023-03-10T11:40:25.599Z,12.12
2023-03-10T11:41:25.608Z,11.96
2023-03-10T11:42:26.250Z,11.96
2023-03-10T11:43:25.566Z,11.85
2023-03-10T11:44:25.549Z,11.83
2023-03-10T11:45:25.582Z,11.86
2023-03-10T11:46:25.588Z,11.86
2023-03-10T11:47:25.507Z,11.98
2023-03-10T11:48:25.525Z,12.12
2023-03-10T11:49:25.503Z,12.23
2023-03-10T11:50:25.482Z,12.31
2023-03-10T11:51:25.486Z,12.28
2023-03-10T11:52:25.478Z,12.28
2023-03-10T11:53:25.490Z,12.24
2023-03-10T11:54:26.904Z,12.35
2023-03-10T11:55:25.433Z,12.29
2023-03-10T11:56:25.426Z,12.31
2023-03-10T11:57:25.400Z,12.41
2023-03-10T11:58:25.418Z,12.57
2023-03-10T11:59:25.377Z,12.56
2023-03-10T12:00:26.140Z,12.70
2023-03-10T12:01:25.356Z,12.68
2023-03-10T12:02:25.363Z,12.82
2023-03-10T12:03:25.361Z,12.89
2023-03-10T12:04:25.328Z,12.87
2023-03-10T12:05:25.388Z,12.86
2023-03-10T12:06:26.733Z,12.79
2023-03-10T12:07:25.303Z,12.77
2023-03-10T12:08:25.289Z,12.64
2023-03-10T12:09:25.315Z,12.62
2023-03-10T12:10:25.264Z,12.62
2023-03-10T12:11:25.245Z,12.72
2023-03-10T12:12:26.157Z,12.82
2023-03-10T12:13:25.238Z,12.79
2023-03-10T12:14:25.238Z,12.92
2023-03-10T12:15:25.199Z,12.87
2023-03-10T12:16:25.259Z,12.86
2023-03-10T12:17:25.184Z,12.83
2023-03-10T12:18:26.947Z,12.77
2023-03-10T12:19:25.165Z,12.83
2023-03-10T12:20:25.179Z,12.62
2023-03-10T12:21:25.172Z,12.49
2023-03-10T12:22:25.158Z,12.54
2023-03-10T12:23:25.143Z,12.49
2023-03-10T12:24:25.118Z,12.54
2023-03-10T12:25:25.131Z,12.67
2023-03-10T12:26:25.099Z,12.78
2023-03-10T12:27:25.063Z,12.65
2023-03-10T12:28:25.084Z,12.70
2023-03-10T12:29:25.059Z,12.57
2023-03-10T12:30:25.986Z,12.56
2023-03-10T12:31:25.076Z,12.38
2023-03-10T12:32:25.076Z,12.42
2023-03-10T12:33:25.013Z,12.29
2023-03-10T12:34:24.999Z,12.32
2023-03-10T12:35:24.971Z,12.29
2023-03-10T12:36:27.636Z,12.21
2023-03-10T12:37:24.959Z,12.14
2023-03-10T12:38:24.965Z,12.13
2023-03-10T12:39:24.932Z,12.12
2023-03-10T12:40:24.954Z,11.91
2023-03-10T12:41:24.919Z,11.95
2023-03-10T12:42:26.248Z,11.95
2023-03-10T12:43:24.894Z,11.98
2023-03-10T12:44:24.888Z,12.07
2023-03-10T12:45:24.856Z,12.09
2023-03-10T12:46:24.910Z,12.09
2023-03-10T12:47:24.853Z,12.16
2023-03-10T12:48:24.833Z,12.27
2023-03-10T12:49:24.830Z,12.35
2023-03-10T12:50:24.814Z,12.49
2023-03-10T12:51:24.794Z,12.68
2023-03-10T12:52:24.799Z,12.82
2023-03-10T12:53:24.765Z,12.83
2023-03-10T12:54:24.759Z,12.87
2023-03-10T12:55:24.756Z,12.71
2023-03-10T12:56:24.755Z,12.83
2023-03-10T12:57:24.772Z,12.71
2023-03-10T12:58:24.716Z,12.64
2023-03-10T12:59:24.712Z,12.57
2023-03-10T13:00:24.722Z,12.29
2023-03-10T13:01:24.813Z,12.28
2023-03-10T13:02:24.674Z,12.27
2023-03-10T13:03:24.712Z,12.24
2023-03-10T13:04:24.657Z,12.16
2023-03-10T13:05:24.636Z,12.13
2023-03-10T13:06:24.628Z,11.99
2023-03-10T13:07:24.642Z,11.86
2023-03-10T13:08:24.610Z,11.91
2023-03-10T13:09:24.592Z,11.75
2023-03-10T13:10:24.608Z,11.75
2023-03-10T13:11:24.588Z,11.78
2023-03-10T13:12:24.565Z,11.69